createdAt,value
2018-02-03T00:01:18.935Z,8.00
2018-02-03T00:03:54.507Z,6.63
2018-02-03T00:09:05.550Z,7.63
2018-02-03T00:11:36.509Z,6.73
2018-02-03T00:14:09.681Z,10.23
2018-02-03T00:16:43.067Z,7.87
2018-02-03T00:19:17.895Z,6.70
2018-02-03T00:21:51.495Z,8.40
2018-02-03T00:24:25.607Z,5.80
2018-02-03T00:26:58.278Z,7.12
2018-02-03T00:29:32.042Z,7.17
2018-02-03T00:32:05.083Z,6.85
2018-02-03T00:34:38.699Z,6.10
2018-02-03T00:37:14.817Z,6.53
2018-02-03T00:39:49.851Z,7.43
2018-02-03T00:42:24.170Z,6.73
2018-02-03T00:44:58.212Z,7.00
2018-02-03T00:52:49.437Z,8.17
2018-02-03T00:55:24.061Z,6.53
2018-02-03T00:58:04.469Z,7.33
2018-02-03T01:00:37.523Z,7.10
2018-02-03T01:03:11.480Z,8.02
2018-02-03T01:05:45.312Z,7.10
2018-02-03T01:10:54.137Z,8.32
2018-02-03T01:13:28.613Z,6.97
2018-02-03T01:16:01.705Z,7.60
2018-02-03T01:18:36.458Z,6.73
2018-02-03T01:21:09.689Z,7.80
2018-02-03T01:26:22.502Z,7.57
2018-02-03T01:28:55.447Z,7.80
2018-02-03T01:31:27.831Z,9.18
2018-02-03T01:34:03.531Z,7.73
2018-02-03T01:36:37.133Z,7.35
2018-02-03T01:39:10.636Z,6.47
2018-02-03T01:41:45.778Z,7.07
2018-02-03T01:46:58.167Z,7.70
2018-02-03T01:49:31.076Z,6.17
2018-02-03T01:54:42.347Z,9.00
2018-02-03T02:05:06.756Z,9.10
2018-02-03T02:07:38.855Z,8.13
2018-02-03T02:10:07.867Z,9.10
2018-02-03T02:12:36.916Z,8.57
2018-02-03T02:15:06.052Z,9.07
2018-02-03T02:17:35.122Z,8.40
2018-02-03T02:20:04.159Z,9.10
2018-02-03T02:22:33.529Z,9.20
2018-02-03T02:25:02.570Z,9.63
2018-02-03T02:27:31.588Z,7.43
2018-02-03T02:30:01.313Z,9.60
2018-02-03T02:32:32.597Z,9.75
2018-02-03T02:35:01.992Z,9.07
2018-02-03T02:37:31.084Z,9.90
2018-02-03T02:40:00.110Z,8.00
2018-02-03T02:42:29.152Z,9.45
2018-02-03T02:44:58.498Z,8.73
2018-02-03T02:47:28.042Z,10.77
2018-02-03T02:49:57.083Z,7.80
2018-02-03T02:52:27.128Z,9.50
2018-02-03T02:54:56.149Z,10.25
2018-02-03T02:57:25.185Z,10.67
2018-02-03T02:59:54.219Z,11.90
2018-02-03T03:02:23.274Z,10.70
2018-02-03T03:04:52.318Z,11.37
2018-02-03T03:07:21.348Z,9.85
2018-02-03T03:09:50.395Z,10.02
2018-02-03T03:12:19.460Z,10.23
2018-02-03T03:14:48.524Z,11.30
2018-02-03T03:17:17.573Z,9.90
2018-02-03T03:19:46.610Z,9.50
2018-02-03T03:22:15.654Z,10.90
2018-02-03T03:24:44.709Z,10.10
2018-02-03T03:27:13.749Z,11.30
2018-02-03T03:29:42.785Z,10.82
2018-02-03T03:32:11.825Z,11.67
2018-02-03T03:34:40.861Z,11.00
2018-02-03T03:37:09.910Z,10.10
2018-02-03T03:39:38.941Z,11.38
2018-02-03T03:42:07.980Z,9.80
2018-02-03T03:44:37.025Z,12.50
2018-02-03T03:47:06.059Z,11.10
2018-02-03T03:49:36.081Z,8.90
2018-02-03T03:52:05.085Z,10.90
2018-02-03T03:54:34.130Z,10.67
2018-02-03T03:57:03.174Z,11.65
2018-02-03T03:59:32.210Z,11.30
2018-02-03T04:02:01.280Z,10.80
2018-02-03T04:04:30.334Z,11.52
2018-02-03T04:06:59.385Z,12.00
2018-02-03T04:09:28.505Z,10.60
2018-02-03T04:11:58.032Z,12.02
2018-02-03T04:16:07.690Z,11.63
2018-02-03T04:18:37.943Z,10.30
2018-02-03T04:21:06.957Z,12.07
2018-02-03T04:23:35.993Z,9.53
2018-02-03T04:26:05.017Z,12.90
2018-02-03T04:28:34.062Z,12.48
2018-02-03T04:31:03.100Z,12.67
2018-02-03T04:33:32.147Z,12.52
2018-02-03T04:36:01.187Z,12.88
2018-02-03T04:38:30.249Z,10.37
2018-02-03T04:40:59.269Z,12.13
2018-02-03T04:43:28.321Z,12.00
2018-02-03T04:45:57.353Z,11.30
2018-02-03T04:48:26.397Z,12.40
2018-02-03T04:53:43.577Z,12.40
2018-02-03T04:58:47.832Z,12.02
2018-02-03T05:01:16.856Z,11.63
2018-02-03T05:03:46.663Z,12.43
2018-02-03T05:06:15.787Z,10.67
2018-02-03T05:08:44.825Z,12.07
2018-02-03T05:11:13.869Z,13.20
2018-02-03T05:13:42.905Z,12.10
2018-02-03T05:16:11.956Z,11.90
2018-02-03T05:18:40.994Z,11.63
2018-02-03T05:21:10.050Z,13.60
2018-02-03T05:23:39.075Z,13.77
2018-02-03T05:26:08.109Z,10.47
2018-02-03T05:28:37.163Z,11.43
2018-02-03T05:31:06.201Z,9.70
2018-02-03T05:33:35.234Z,12.35
2018-02-03T05:36:04.281Z,12.32
2018-02-03T05:38:33.321Z,8.77
2018-02-03T05:41:02.349Z,10.93
2018-02-03T05:43:32.150Z,10.53
2018-02-03T05:46:01.201Z,11.10
2018-02-03T05:48:30.233Z,8.73
2018-02-03T05:51:00.207Z,12.05
2018-02-03T05:56:06.254Z,11.18
2018-02-03T06:01:15.466Z,11.85
2018-02-03T06:03:46.482Z,11.80
2018-02-03T06:06:24.313Z,11.02
2018-02-03T06:08:54.314Z,10.00
2018-02-03T06:11:37.735Z,11.60
2018-02-03T06:14:06.789Z,9.43
2018-02-03T06:19:13.117Z,11.20
2018-02-03T06:21:45.919Z,12.17
2018-02-03T06:24:23.906Z,11.45
2018-02-03T06:26:52.957Z,9.33
2018-02-03T06:29:37.393Z,10.90
2018-02-03T06:32:06.434Z,11.20
2018-02-03T06:37:11.670Z,10.40
2018-02-03T06:39:40.757Z,10.27
2018-02-03T06:42:09.786Z,9.03
2018-02-03T06:44:38.822Z,10.68
2018-02-03T06:47:08.761Z,12.73
2018-02-03T06:49:37.809Z,9.53
2018-02-03T06:52:06.853Z,10.65
2018-02-03T06:54:35.921Z,11.43
2018-02-03T06:57:04.936Z,8.60
2018-02-03T06:59:33.973Z,11.27
2018-02-03T07:02:03.002Z,16.20
2018-02-03T07:04:32.087Z,12.05
2018-02-03T07:07:01.121Z,11.27
2018-02-03T07:09:30.166Z,10.85
2018-02-03T07:11:59.226Z,10.00
2018-02-03T07:14:28.342Z,10.80
2018-02-03T07:16:57.401Z,10.43
2018-02-03T07:19:26.441Z,11.20
2018-02-03T07:21:55.484Z,11.20
2018-02-03T07:24:24.534Z,10.60
2018-02-03T07:26:53.739Z,12.02
2018-02-03T07:29:22.821Z,10.63
2018-02-03T07:31:51.865Z,10.07
2018-02-03T07:34:21.852Z,11.00
2018-02-03T07:36:50.922Z,9.67
2018-02-03T07:39:21.077Z,12.70
2018-02-03T07:41:51.301Z,10.37
2018-02-03T07:44:20.337Z,11.10
2018-02-03T07:46:49.380Z,11.70
2018-02-03T07:49:18.433Z,13.60
2018-02-03T07:51:47.622Z,13.35
2018-02-03T07:54:16.770Z,11.33
2018-02-03T07:56:45.812Z,13.15
2018-02-03T07:59:21.532Z,16.80
2018-02-03T08:01:50.547Z,13.73
2018-02-03T08:04:19.628Z,12.10
2018-02-03T08:06:48.790Z,13.13
2018-02-03T08:09:17.829Z,15.17
2018-02-03T08:11:46.890Z,12.70
2018-02-03T08:14:15.927Z,13.80
2018-02-03T08:16:44.972Z,15.13
2018-02-03T08:19:14.018Z,12.43
2018-02-03T08:21:43.070Z,14.32
2018-02-03T08:24:12.122Z,14.50
2018-02-03T08:26:41.165Z,12.27
2018-02-03T08:29:10.210Z,13.50
2018-02-03T08:31:39.257Z,12.53
2018-02-03T08:34:08.301Z,14.48
2018-02-03T08:36:37.402Z,9.80
2018-02-03T08:39:06.416Z,12.37
2018-02-03T08:41:35.808Z,14.38
2018-02-03T08:44:04.859Z,10.10
2018-02-03T08:49:09.074Z,13.20
2018-02-03T08:51:38.109Z,12.20
2018-02-03T08:54:07.152Z,11.90
2018-02-03T08:56:36.194Z,12.43
2018-02-03T08:59:05.217Z,11.00
2018-02-03T09:01:34.258Z,13.10
2018-02-03T09:04:03.298Z,12.43
2018-02-03T09:06:32.338Z,12.60
2018-02-03T09:09:01.431Z,10.45
2018-02-03T09:11:30.433Z,11.83
2018-02-03T09:13:59.474Z,10.27
2018-02-03T09:16:28.504Z,9.80
2018-02-03T09:18:57.574Z,12.88
2018-02-03T09:21:26.630Z,12.47
2018-02-03T09:23:55.729Z,10.93
2018-02-03T09:26:24.761Z,12.30
2018-02-03T09:28:53.772Z,11.27
2018-02-03T09:31:22.841Z,9.75
2018-02-03T09:33:51.876Z,11.82
2018-02-03T09:36:20.921Z,9.70
2018-02-03T09:38:49.964Z,10.53
2018-02-03T09:41:18.993Z,10.43
2018-02-03T09:43:48.030Z,10.82
2018-02-03T09:46:17.107Z,8.60
2018-02-03T09:48:46.155Z,12.77
2018-02-03T09:51:15.204Z,9.10
2018-02-03T09:53:44.237Z,10.80
2018-02-03T09:56:13.281Z,12.27
2018-02-03T09:58:42.317Z,10.00
2018-02-03T10:01:11.365Z,10.77
2018-02-03T10:03:40.405Z,12.25
2018-02-03T10:06:14.977Z,9.83
2018-02-03T10:08:44.123Z,10.63
2018-02-03T10:11:13.126Z,9.60
2018-02-03T10:13:42.223Z,9.23
2018-02-03T10:16:11.225Z,7.90
2018-02-03T10:21:15.495Z,9.98
2018-02-03T10:23:44.658Z,8.50
2018-02-03T10:26:13.678Z,7.87
2018-02-03T10:28:42.754Z,11.07
2018-02-03T10:31:11.745Z,8.37
2018-02-03T10:33:42.650Z,8.23
2018-02-03T10:36:11.653Z,8.85
2018-02-03T10:38:40.678Z,8.07
2018-02-03T10:43:44.958Z,10.00
2018-02-03T10:46:13.984Z,9.73
2018-02-03T10:48:43.029Z,10.43
2018-02-03T10:51:12.058Z,9.95
2018-02-03T10:53:41.085Z,9.10
2018-02-03T10:56:10.125Z,13.10
2018-02-03T10:58:39.166Z,9.77
2018-02-03T11:01:10.032Z,11.27
2018-02-03T11:03:39.088Z,11.13
2018-02-03T11:08:43.530Z,11.65
2018-02-03T11:13:48.030Z,9.80
2018-02-03T11:16:17.214Z,11.00
2018-02-03T11:18:47.269Z,10.70
2018-02-03T11:21:16.449Z,10.03
2018-02-03T11:23:45.476Z,10.07
2018-02-03T11:26:14.519Z,11.90
2018-02-03T11:28:43.594Z,10.27
2018-02-03T11:31:12.640Z,7.77
2018-02-03T11:33:42.767Z,9.03
2018-02-03T11:36:11.816Z,12.25
2018-02-03T11:38:42.069Z,9.80
2018-02-03T11:41:11.101Z,11.27
2018-02-03T11:46:15.465Z,12.82
2018-02-03T11:48:44.506Z,11.70
2018-02-03T11:51:13.550Z,10.67
2018-02-03T11:53:44.152Z,12.03
2018-02-03T11:56:13.217Z,10.77
2018-02-03T11:58:42.950Z,11.57
2018-02-03T12:01:11.997Z,9.40
2018-02-03T12:03:41.862Z,10.85
2018-02-03T12:06:10.921Z,11.02
2018-02-03T12:08:41.136Z,9.13
2018-02-03T12:11:18.676Z,7.90
2018-02-03T12:13:47.706Z,11.17
2018-02-03T12:16:16.738Z,9.18
2018-02-03T12:18:45.785Z,9.80
2018-02-03T12:23:49.988Z,8.75
2018-02-03T12:26:19.013Z,8.90
2018-02-03T12:28:48.045Z,8.40
2018-02-03T12:31:17.076Z,9.40
2018-02-03T12:33:46.110Z,8.77
2018-02-03T12:36:15.223Z,9.00
2018-02-03T12:38:44.226Z,10.35
2018-02-03T12:41:13.260Z,9.63
2018-02-03T12:43:43.096Z,9.18
2018-02-03T12:48:47.333Z,7.65
2018-02-03T12:51:16.364Z,7.23
2018-02-03T12:53:51.004Z,7.00
2018-02-03T12:56:20.009Z,7.75
2018-02-03T12:58:49.037Z,6.57
2018-02-03T13:01:18.068Z,8.20
2018-02-03T13:03:48.076Z,8.90
2018-02-03T13:06:17.134Z,5.73
2018-02-03T13:08:46.160Z,7.30
2018-02-03T13:11:15.239Z,7.50
2018-02-03T13:13:44.264Z,7.50
2018-02-03T13:16:13.315Z,6.23
2018-02-03T13:18:43.289Z,7.17
2018-02-03T13:21:12.321Z,8.80
2018-02-03T13:23:42.081Z,9.10
2018-02-03T13:26:11.122Z,9.00
2018-02-03T13:28:41.927Z,10.53
2018-02-03T13:31:10.952Z,9.20
2018-02-03T13:33:41.083Z,9.07
2018-02-03T13:36:12.939Z,6.70
2018-02-03T13:38:42.049Z,5.87
2018-02-03T13:41:12.033Z,7.60
2018-02-03T13:43:41.069Z,8.30
2018-02-03T13:46:11.140Z,7.17
2018-02-03T13:48:44.159Z,8.00
2018-02-03T13:51:13.282Z,7.07
2018-02-03T13:53:42.321Z,8.25
2018-02-03T13:56:12.684Z,7.03
2018-02-03T13:58:41.716Z,8.40
2018-02-03T14:01:11.692Z,7.70
2018-02-03T14:03:40.716Z,10.87
2018-02-03T14:06:10.968Z,10.23
2018-02-03T14:08:40.011Z,7.53
2018-02-03T14:11:09.241Z,8.85
2018-02-03T14:13:38.247Z,7.83
2018-02-03T14:16:07.313Z,7.73
2018-02-03T14:18:37.792Z,7.37
2018-02-03T14:21:06.830Z,7.47
2018-02-03T14:23:35.861Z,7.60
2018-02-03T14:26:11.159Z,8.80
2018-02-03T14:28:40.210Z,11.03
2018-02-03T14:31:09.898Z,7.10
2018-02-03T14:33:38.960Z,9.00
2018-02-03T14:36:08.004Z,8.27
2018-02-03T14:38:37.086Z,8.00
2018-02-03T14:41:07.025Z,7.53
2018-02-03T14:43:36.087Z,8.13
2018-02-03T14:46:05.112Z,7.53
2018-02-03T14:48:34.192Z,8.53
2018-02-03T14:51:04.136Z,7.83
2018-02-03T14:53:40.743Z,9.13
2018-02-03T14:56:13.452Z,8.50
2018-02-03T14:58:46.989Z,7.00
2018-02-03T15:03:57.000Z,8.02
2018-02-03T15:09:06.584Z,8.90
2018-02-03T15:11:39.798Z,9.10
2018-02-03T15:14:13.657Z,8.63
2018-02-03T15:16:47.029Z,7.10
2018-02-03T15:19:16.048Z,6.63
2018-02-03T15:21:45.136Z,7.43
2018-02-03T15:24:14.178Z,8.60
2018-02-03T15:26:43.223Z,9.60
2018-02-03T15:31:47.635Z,8.90
2018-02-03T15:34:16.668Z,7.30
2018-02-03T15:36:45.730Z,10.70
2018-02-03T15:39:14.909Z,9.60
2018-02-03T15:41:44.778Z,9.37
2018-02-03T15:44:14.438Z,8.20
2018-02-03T15:49:19.650Z,10.63
2018-02-03T15:51:48.688Z,10.00
2018-02-03T15:56:53.161Z,10.43
2018-02-03T15:59:23.212Z,10.23
2018-02-03T16:01:52.230Z,8.20
2018-02-03T16:04:26.108Z,8.20
2018-02-03T16:06:55.129Z,9.43
2018-02-03T16:09:24.181Z,9.55
2018-02-03T16:11:53.214Z,9.17
2018-02-03T16:14:22.303Z,7.83
2018-02-03T16:16:51.359Z,10.00
2018-02-03T16:19:20.408Z,8.00
2018-02-03T16:21:49.440Z,8.82
2018-02-03T16:24:18.490Z,10.33
2018-02-03T16:26:47.525Z,9.18
2018-02-03T16:29:18.790Z,9.95
2018-02-03T16:31:48.917Z,8.17
2018-02-03T16:34:17.974Z,8.70
2018-02-03T16:36:48.981Z,7.67
2018-02-03T16:41:54.464Z,9.80
2018-02-03T16:44:27.856Z,5.10
2018-02-03T16:46:58.998Z,4.78
2018-02-03T16:49:28.046Z,4.07
2018-02-03T16:52:04.454Z,4.60
2018-02-03T16:54:33.480Z,6.20
2018-02-03T16:59:37.893Z,4.40
2018-02-03T17:02:09.123Z,4.63
2018-02-03T17:04:39.123Z,5.30
2018-02-03T17:07:13.504Z,5.50
2018-02-03T17:09:42.567Z,6.10
2018-02-03T17:12:15.171Z,4.10
2018-02-03T17:14:44.219Z,4.77
2018-02-03T17:17:13.646Z,5.40
2018-02-03T17:19:42.688Z,5.83
2018-02-03T17:22:19.453Z,5.40
2018-02-03T17:27:24.591Z,4.85
2018-02-03T17:29:54.560Z,4.23
2018-02-03T17:32:27.368Z,4.90
2018-02-03T17:35:00.255Z,5.40
2018-02-03T17:37:34.854Z,4.73
2018-02-03T17:40:03.925Z,5.10
2018-02-03T17:42:32.951Z,5.32
2018-02-03T17:45:07.488Z,4.20
2018-02-03T17:47:36.545Z,5.30
2018-02-03T17:50:10.969Z,5.82
2018-02-03T17:52:39.985Z,4.80
2018-02-03T17:55:09.235Z,5.62
2018-02-03T17:57:44.682Z,5.70
2018-02-03T18:00:14.684Z,4.43
2018-02-03T18:02:43.793Z,5.40
2018-02-03T18:05:13.836Z,5.10
2018-02-03T18:07:43.786Z,4.60
2018-02-03T18:10:13.453Z,5.20
2018-02-03T18:17:58.929Z,6.03
2018-02-03T18:20:38.914Z,5.20
2018-02-03T18:23:07.981Z,5.72
2018-02-03T18:25:41.466Z,6.00
2018-02-03T18:30:46.761Z,5.62
2018-02-03T18:33:19.457Z,5.73
2018-02-03T18:35:49.469Z,7.22
2018-02-03T18:38:19.458Z,6.53
2018-02-03T18:40:48.501Z,9.50
2018-02-03T18:43:18.455Z,8.27
2018-02-03T18:45:50.602Z,8.87
2018-02-03T18:48:19.674Z,9.05
2018-02-03T18:50:48.732Z,10.77
2018-02-03T18:53:25.242Z,7.83
2018-02-03T18:55:54.272Z,6.97
2018-02-03T18:58:25.233Z,7.25
2018-02-03T19:00:54.274Z,5.60
2018-02-03T19:03:23.310Z,6.90
2018-02-03T19:05:52.346Z,8.20
2018-02-03T19:08:21.415Z,7.22
2018-02-03T19:13:25.663Z,8.80
2018-02-03T19:15:58.623Z,6.70
2018-02-03T19:18:27.683Z,7.75
2018-02-03T19:21:00.178Z,8.70
2018-02-03T19:23:29.221Z,8.77
2018-02-03T19:25:59.155Z,9.38
2018-02-03T19:28:28.205Z,9.47
2018-02-03T19:30:57.250Z,9.32
2018-02-03T19:33:26.302Z,9.23
2018-02-03T19:36:01.018Z,10.50
2018-02-03T19:41:06.594Z,11.30
2018-02-03T19:43:39.373Z,12.17
2018-02-03T19:46:08.452Z,10.47
2018-02-03T19:48:45.322Z,11.52
2018-02-03T19:51:14.388Z,12.13
2018-02-03T19:56:19.646Z,13.10
2018-02-03T19:58:50.630Z,12.07
2018-02-03T20:01:19.682Z,10.77
2018-02-03T20:03:52.197Z,12.52
2018-02-03T20:06:21.255Z,11.43
2018-02-03T20:09:04.489Z,13.10
2018-02-03T20:11:42.535Z,11.03
2018-02-03T20:14:11.594Z,16.27
2018-02-03T20:16:45.464Z,14.65
2018-02-03T20:19:28.213Z,14.03
2018-02-03T20:22:04.485Z,15.50
2018-02-03T20:24:34.516Z,13.80
2018-02-03T20:29:40.390Z,15.40
2018-02-03T20:32:15.148Z,17.23
2018-02-03T20:34:44.207Z,13.80
2018-02-03T20:37:16.979Z,14.25
2018-02-03T20:39:46.026Z,10.97
2018-02-03T20:42:32.534Z,13.70
2018-02-03T20:47:37.757Z,15.30
2018-02-03T20:50:34.860Z,15.23
2018-02-03T20:55:46.200Z,16.77
2018-02-03T20:58:15.272Z,12.93
2018-02-03T21:00:44.330Z,19.62
2018-02-03T21:03:14.335Z,46.85
2018-02-03T21:05:43.377Z,16.17
2018-02-03T21:11:11.276Z,15.75
2018-02-03T21:13:40.344Z,13.10
2018-02-03T21:16:13.390Z,14.32
2018-02-03T21:18:42.831Z,12.53
2018-02-03T21:21:12.560Z,12.73
2018-02-03T21:23:41.611Z,14.40
2018-02-03T21:28:49.888Z,15.98
2018-02-03T21:34:24.090Z,14.90
2018-02-03T21:36:54.858Z,14.43
2018-02-03T21:39:27.650Z,12.83
2018-02-03T21:42:14.304Z,15.15
2018-02-03T21:44:44.256Z,15.90
2018-02-03T21:47:15.206Z,15.85
2018-02-03T21:49:44.253Z,15.25
2018-02-03T21:52:22.192Z,15.10
2018-02-03T21:54:51.243Z,14.95
2018-02-03T21:57:25.157Z,15.27
2018-02-03T22:00:22.198Z,12.70
2018-02-03T22:02:57.103Z,14.65
2018-02-03T22:08:05.547Z,15.25
2018-02-03T22:10:34.601Z,11.63
2018-02-03T22:13:05.579Z,14.48
2018-02-03T22:15:34.634Z,14.63
2018-02-03T22:18:05.276Z,15.77
2018-02-03T22:20:34.298Z,14.97
2018-02-03T22:23:06.014Z,13.80
2018-02-03T22:25:35.093Z,13.43
2018-02-03T22:28:07.842Z,14.60
2018-02-03T22:30:36.900Z,12.17
2018-02-03T22:33:19.562Z,14.65
2018-02-03T22:35:48.627Z,13.60
2018-02-03T22:38:29.662Z,13.82
2018-02-03T22:40:59.574Z,13.88
2018-02-03T22:43:28.712Z,13.17
2018-02-03T22:46:01.119Z,14.23
2018-02-03T22:48:31.074Z,14.20
2018-02-03T22:51:00.174Z,12.70
2018-02-03T22:53:30.125Z,16.00
2018-02-03T22:56:01.045Z,14.87
2018-02-03T22:58:33.563Z,11.90
2018-02-03T23:01:10.014Z,15.35
2018-02-03T23:03:39.060Z,14.20
2018-02-03T23:08:48.938Z,18.35
2018-02-03T23:11:17.949Z,13.93
2018-02-03T23:13:47.006Z,16.58
2018-02-03T23:16:16.068Z,18.58
2018-02-03T23:18:45.117Z,18.50
2018-02-03T23:21:14.162Z,19.02
2018-02-03T23:23:43.266Z,16.00
2018-02-03T23:26:13.219Z,20.20
2018-02-03T23:28:42.265Z,16.07
2018-02-03T23:31:11.332Z,17.70
2018-02-03T23:33:40.372Z,19.65
2018-02-03T23:36:10.332Z,17.93
2018-02-03T23:38:39.395Z,18.73
2018-02-03T23:41:08.453Z,16.97
2018-02-03T23:43:37.490Z,18.45
2018-02-03T23:46:09.594Z,15.53
2018-02-03T23:48:38.665Z,17.27
2018-02-03T23:53:47.885Z,18.23
2018-02-03T23:56:25.848Z,16.33
